Time;durP1;ratioP1;P1;durP2;ratioP2;P2;SDS_P1;SDS_P2;PMS_P1;PMS_P2;Temp;Humidity;BMP_temperature;BMP_pressure;BME280_temperature;BME280_humidity;BME280_pressure;Samples;Min_cycle;Max_cycle;Signal;HPM_P1;HPM_P2
2022/09/14 00:01:43;;;;;;;6.32;2.10;;;15.10;99.90;;;;;;4992728;28;20065;-71
2022/09/14 00:04:16;;;;;;;5.85;1.67;;;15.20;99.90;;;;;;4992914;28;20038;-72
2022/09/14 00:06:43;;;;;;;5.72;2.30;;;15.20;99.90;;;;;;4991050;28;20022;-70
2022/09/14 00:09:17;;;;;;;3.88;1.33;;;15.20;99.90;;;;;;5009492;28;20384;-71
2022/09/14 00:11:43;;;;;;;4.78;1.80;;;15.20;99.90;;;;;;4991868;28;20046;-71
2022/09/14 00:14:08;;;;;;;5.97;1.83;;;15.20;99.90;;;;;;4993799;28;20034;-72
2022/09/14 00:16:37;;;;;;;5.93;1.98;;;15.20;99.90;;;;;;4993667;28;20033;-72
2022/09/14 00:19:16;;;;;;;6.40;1.85;;;15.20;99.90;;;;;;4974256;28;20031;-73
2022/09/14 00:21:42;;;;;;;8.57;2.10;;;15.30;99.90;;;;;;4974211;28;20034;-71
2022/09/14 00:24:09;;;;;;;7.20;1.80;;;15.30;99.90;;;;;;4973949;28;20098;-71
2022/09/14 00:26:36;;;;;;;8.05;2.13;;;15.30;99.90;;;;;;5017758;28;20030;-72
2022/09/14 00:29:03;;;;;;;9.23;1.70;;;15.40;99.90;;;;;;4982635;28;20029;-72
2022/09/14 00:31:31;;;;;;;4.97;1.60;;;15.40;99.90;;;;;;4992711;28;20018;-70
2022/09/14 00:33:56;;;;;;;8.98;2.00;;;15.40;99.90;;;;;;4992751;28;20030;-71
2022/09/14 00:36:25;;;;;;;6.20;1.88;;;15.50;99.90;;;;;;4990142;28;20100;-71
2022/09/14 00:38:53;;;;;;;6.25;2.05;;;15.50;99.90;;;;;;4996866;28;20034;-73
2022/09/14 00:41:32;;;;;;;5.22;1.77;;;15.60;99.90;;;;;;4998370;28;20089;-71
2022/09/14 00:44:05;;;;;;;6.35;1.42;;;15.60;99.90;;;;;;4993321;28;20022;-70
2022/09/14 00:46:43;;;;;;;4.60;1.77;;;15.60;99.90;;;;;;4979096;28;20023;-72
2022/09/14 00:49:14;;;;;;;5.68;1.88;;;15.60;99.90;;;;;;4988129;28;20037;-70
2022/09/14 00:51:54;;;;;;;5.30;1.50;;;15.60;99.90;;;;;;4979583;28;20113;-70
2022/09/14 00:54:20;;;;;;;3.30;1.48;;;15.60;99.90;;;;;;4991771;28;20067;-71
2022/09/14 00:56:47;;;;;;;10.00;1.70;;;15.70;99.90;;;;;;4991570;28;20334;-71
2022/09/14 00:59:19;;;;;;;5.93;2.20;;;15.70;99.90;;;;;;4993015;28;20101;-73
2022/09/14 01:01:44;;;;;;;;;;;15.60;99.90;;;;;;4993447;28;20014;-70
2022/09/14 01:04:10;;;;;;;2.85;1.30;;;15.60;99.90;;;;;;4993161;28;19976;-71
2022/09/14 01:06:50;;;;;;;6.35;1.98;;;15.60;99.90;;;;;;4991434;28;20053;-71
2022/09/14 01:09:25;;;;;;;2.60;1.33;;;15.60;99.90;;;;;;4992989;28;20018;-71
2022/09/14 01:12:44;;;;;;;4.05;1.65;;;15.60;99.90;;;;;;4992431;28;20491;-72
2022/09/14 01:15:26;;;;;;;4.55;1.50;;;15.50;99.90;;;;;;4963377;28;20050;-71
2022/09/14 01:18:23;;;;;;;3.00;1.55;;;15.50;99.90;;;;;;4973763;28;20023;-72
2022/09/14 01:21:09;;;;;;;4.78;1.23;;;15.50;99.90;;;;;;4973451;28;20023;-71
2022/09/14 01:24:05;;;;;;;4.10;1.50;;;15.50;99.90;;;;;;4973096;28;20405;-71
2022/09/14 01:27:04;;;;;;;7.25;1.75;;;15.40;99.90;;;;;;4972553;28;20469;-71
2022/09/14 01:29:34;;;;;;;2.47;1.40;;;15.40;99.90;;;;;;4987354;28;20045;-70
2022/09/14 01:32:20;;;;;;;9.38;1.90;;;15.40;99.90;;;;;;4980878;28;20416;-71
2022/09/14 01:35:04;;;;;;;3.40;1.83;;;15.40;99.90;;;;;;4975650;28;20025;-71
2022/09/14 01:37:39;;;;;;;5.72;1.60;;;15.40;99.90;;;;;;4984199;28;20029;-70
2022/09/14 01:40:21;;;;;;;8.57;1.55;;;15.40;99.90;;;;;;4992251;28;20513;-71
2022/09/14 01:42:52;;;;;;;3.17;1.92;;;15.40;99.90;;;;;;4992727;28;20037;-71
2022/09/14 01:45:19;;;;;;;4.57;1.90;;;15.40;99.90;;;;;;4985991;28;20454;-70
2022/09/14 01:47:52;;;;;;;6.15;2.15;;;15.40;99.90;;;;;;4973148;28;20050;-71
2022/09/14 01:50:23;;;;;;;7.03;1.70;;;15.40;99.90;;;;;;4973354;28;20089;-72
2022/09/14 01:52:57;;;;;;;4.20;1.63;;;15.40;99.90;;;;;;4973736;28;20035;-72
2022/09/14 01:55:31;;;;;;;7.03;2.72;;;15.50;99.90;;;;;;4977577;28;20077;-70
2022/09/14 01:58:15;;;;;;;4.43;2.00;;;15.50;99.90;;;;;;4996283;28;20031;-73
2022/09/14 02:00:44;;;;;;;5.20;1.83;;;15.50;99.90;;;;;;4995126;28;20118;-71
2022/09/14 02:03:18;;;;;;;4.85;1.67;;;15.50;99.90;;;;;;4996532;28;20024;-70
2022/09/14 02:05:55;;;;;;;5.72;1.92;;;15.50;99.90;;;;;;4983473;28;20457;-72
2022/09/14 02:08:21;;;;;;;8.18;3.10;;;15.50;99.90;;;;;;4976340;28;20042;-69
2022/09/14 02:10:47;;;;;;;5.70;1.67;;;15.50;99.90;;;;;;4976424;28;20026;-71
2022/09/14 02:13:12;;;;;;;3.80;2.03;;;15.50;99.90;;;;;;4991412;28;20057;-72
2022/09/14 02:15:39;;;;;;;2.85;1.60;;;15.50;99.90;;;;;;4984689;28;20039;-72
2022/09/14 02:18:05;;;;;;;8.60;1.67;;;15.60;99.90;;;;;;4976286;28;20516;-70
2022/09/14 02:20:42;;;;;;;3.70;1.50;;;15.60;99.90;;;;;;4976217;28;20045;-70
2022/09/14 02:23:08;;;;;;;6.43;1.90;;;15.70;99.90;;;;;;4976598;28;20058;-70
2022/09/14 02:25:35;;;;;;;6.47;1.42;;;15.70;99.90;;;;;;4975743;28;20457;-73
2022/09/14 02:28:03;;;;;;;4.50;1.80;;;15.70;99.90;;;;;;4978814;28;20038;-70
2022/09/14 02:30:34;;;;;;;5.70;1.40;;;15.80;99.90;;;;;;4976248;28;20070;-71
2022/09/14 02:33:19;;;;;;;6.23;1.67;;;15.80;99.90;;;;;;4977357;28;20523;-72
2022/09/14 02:35:53;;;;;;;7.68;1.70;;;15.80;99.90;;;;;;4984341;28;20287;-71
2022/09/14 02:38:48;;;;;;;5.63;1.77;;;15.80;99.90;;;;;;4985389;28;20034;-71
2022/09/14 02:41:23;;;;;;;2.95;1.25;;;15.80;99.90;;;;;;4986934;28;20050;-70
2022/09/14 02:44:20;;;;;;;5.72;1.58;;;15.90;99.90;;;;;;4984827;28;20102;-72
2022/09/14 02:47:15;;;;;;;9.65;1.40;;;15.90;99.90;;;;;;4975754;28;20035;-73
2022/09/14 02:50:12;;;;;;;7.38;1.85;;;15.90;99.90;;;;;;4976011;28;20105;-71
2022/09/14 02:52:58;;;;;;;8.43;2.10;;;16.00;99.90;;;;;;4978114;28;20038;-71
2022/09/14 02:55:28;;;;;;;9.57;2.25;;;16.00;99.90;;;;;;4995343;28;20105;-72
2022/09/14 02:58:02;;;;;;;4.60;1.50;;;16.00;99.90;;;;;;4986963;28;20583;-71
2022/09/14 03:00:30;;;;;;;8.30;1.70;;;16.00;99.90;;;;;;4975428;28;20035;-71
2022/09/14 03:02:56;;;;;;;7.25;1.75;;;16.00;99.90;;;;;;4975242;28;20042;-74
2022/09/14 03:05:22;;;;;;;6.78;1.60;;;16.00;99.90;;;;;;4986704;28;20030;-73
2022/09/14 03:07:47;;;;;;;4.25;1.50;;;16.10;99.90;;;;;;4993488;28;20419;-70
2022/09/14 03:10:13;;;;;;;4.85;1.52;;;16.10;99.90;;;;;;4975955;28;20452;-73
2022/09/14 03:12:38;;;;;;;5.18;1.63;;;16.00;99.90;;;;;;4974623;28;20357;-72
2022/09/14 03:15:05;;;;;;;3.50;1.55;;;16.00;99.90;;;;;;4985672;28;20038;-71
2022/09/14 03:17:31;;;;;;;5.78;2.08;;;16.10;99.90;;;;;;4993590;28;20066;-70
2022/09/14 03:19:56;;;;;;;4.82;1.67;;;16.10;99.90;;;;;;4994564;28;20382;-72
2022/09/14 03:22:22;;;;;;;6.47;1.90;;;16.10;99.90;;;;;;4982899;28;20031;-73
2022/09/14 03:24:48;;;;;;;7.28;2.33;;;16.10;99.90;;;;;;4974562;28;20026;-73
2022/09/14 03:27:13;;;;;;;5.72;1.77;;;16.00;99.90;;;;;;4977904;28;20022;-71
2022/09/14 03:29:39;;;;;;;10.70;2.30;;;16.00;99.90;;;;;;4987171;28;20034;-71
2022/09/14 03:32:04;;;;;;;6.53;2.20;;;16.10;99.90;;;;;;4974982;28;20070;-70
2022/09/14 03:34:30;;;;;;;4.93;2.33;;;16.10;99.90;;;;;;4980866;28;20022;-71
2022/09/14 03:36:56;;;;;;;3.72;2.00;;;16.10;99.90;;;;;;4992223;28;20037;-71
2022/09/14 03:39:21;;;;;;;7.43;1.98;;;16.10;99.90;;;;;;4993056;28;20038;-71
2022/09/14 03:41:47;;;;;;;4.55;1.92;;;16.10;99.90;;;;;;4994175;28;20030;-71
2022/09/14 03:44:13;;;;;;;3.38;1.60;;;16.10;99.90;;;;;;4981984;28;20209;-71
2022/09/14 03:46:38;;;;;;;7.82;2.72;;;16.10;99.90;;;;;;4974454;28;20027;-71
2022/09/14 03:49:04;;;;;;;4.78;1.80;;;16.10;99.90;;;;;;4973381;28;20051;-71
2022/09/14 03:51:32;;;;;;;6.05;2.35;;;16.10;99.90;;;;;;4977215;28;20023;-71
2022/09/14 03:53:57;;;;;;;5.82;1.85;;;16.10;99.90;;;;;;4974801;28;20038;-71
2022/09/14 03:56:23;;;;;;;6.45;2.00;;;16.00;99.90;;;;;;4973536;28;20485;-73
2022/09/14 03:58:49;;;;;;;6.55;1.85;;;16.00;99.90;;;;;;4991608;28;20027;-71
2022/09/14 04:01:18;;;;;;;4.45;1.50;;;16.00;99.90;;;;;;4977873;28;20038;-72
2022/09/14 04:03:44;;;;;;;7.95;2.40;;;16.00;99.90;;;;;;4986012;28;20018;-72
2022/09/14 04:06:10;;;;;;;6.78;1.85;;;16.00;99.90;;;;;;4992028;28;20028;-71
2022/09/14 04:08:38;;;;;;;6.70;1.80;;;16.00;99.90;;;;;;4977263;28;20114;-71
2022/09/14 04:11:15;;;;;;;5.95;1.95;;;16.00;99.90;;;;;;4973422;28;20058;-70
2022/09/14 04:13:41;;;;;;;5.28;1.80;;;16.00;99.90;;;;;;4974151;28;20045;-72
2022/09/14 04:16:07;;;;;;;4.90;2.00;;;16.00;99.90;;;;;;4973019;28;20128;-70
2022/09/14 04:18:33;;;;;;;4.72;1.75;;;16.00;99.90;;;;;;4974001;28;20771;-71
2022/09/14 04:21:01;;;;;;;5.90;2.08;;;16.00;99.90;;;;;;4974627;28;20027;-73
2022/09/14 04:23:27;;;;;;;6.93;2.03;;;16.00;99.90;;;;;;4973287;28;20130;-71
2022/09/14 04:25:53;;;;;;;4.25;1.85;;;16.00;99.90;;;;;;4976104;28;20476;-70
2022/09/14 04:28:19;;;;;;;4.32;1.90;;;16.00;99.90;;;;;;4985375;28;20105;-72
2022/09/14 04:30:57;;;;;;;5.20;2.20;;;16.00;99.90;;;;;;4985799;28;20475;-72
2022/09/14 04:33:24;;;;;;;5.32;2.72;;;16.00;99.90;;;;;;4973928;28;20044;-73
2022/09/14 04:36:00;;;;;;;6.32;2.55;;;16.00;99.90;;;;;;4982837;28;20166;-72
2022/09/14 04:38:27;;;;;;;9.50;2.70;;;15.90;99.90;;;;;;4992448;28;20041;-72
2022/09/14 04:40:52;;;;;;;5.72;2.70;;;15.90;99.90;;;;;;4993274;28;20018;-71
2022/09/14 04:43:18;;;;;;;5.65;2.65;;;15.90;99.90;;;;;;4986411;28;20030;-72
2022/09/14 04:45:44;;;;;;;13.70;4.00;;;16.00;99.90;;;;;;4976454;28;20033;-72
2022/09/14 04:48:10;;;;;;;7.00;2.50;;;15.90;99.90;;;;;;4981928;28;20034;-72
2022/09/14 04:50:35;;;;;;;11.23;3.10;;;16.00;99.90;;;;;;4986869;28;20448;-72
2022/09/14 04:53:01;;;;;;;6.45;2.80;;;16.00;99.90;;;;;;4992867;28;20148;-71
2022/09/14 04:55:27;;;;;;;8.32;3.42;;;15.90;99.90;;;;;;4979652;28;20085;-70
2022/09/14 04:57:53;;;;;;;9.25;3.25;;;15.90;99.90;;;;;;4973627;28;20026;-72
2022/09/14 05:00:18;;;;;;;7.60;2.90;;;15.90;99.90;;;;;;4972752;28;20066;-72
2022/09/14 05:02:44;;;;;;;10.38;3.80;;;15.90;99.90;;;;;;4974045;28;20027;-71
2022/09/14 05:05:10;;;;;;;11.52;4.25;;;15.90;99.90;;;;;;4974946;28;20031;-71
2022/09/14 05:07:35;;;;;;;8.43;4.65;;;15.90;99.90;;;;;;4986889;28;20526;-70
2022/09/14 05:10:01;;;;;;;9.90;4.50;;;15.90;99.90;;;;;;4985864;28;20061;-71
2022/09/14 05:12:28;;;;;;;8.80;3.72;;;15.90;99.90;;;;;;4973725;28;20129;-71
2022/09/14 05:14:53;;;;;;;7.63;3.78;;;15.90;99.90;;;;;;4973316;28;20040;-71
2022/09/14 05:17:19;;;;;;;10.75;3.97;;;15.90;99.90;;;;;;4975641;28;20023;-71
2022/09/14 05:19:44;;;;;;;11.23;3.80;;;16.00;99.90;;;;;;4973590;28;20023;-71
2022/09/14 05:22:10;;;;;;;9.07;3.53;;;15.90;99.90;;;;;;4973218;28;20470;-72
2022/09/14 05:24:35;;;;;;;5.68;3.22;;;15.90;99.90;;;;;;4973651;28;20051;-71
2022/09/14 05:27:01;;;;;;;10.25;3.75;;;15.90;99.90;;;;;;4974264;28;20066;-72
2022/09/14 05:29:28;;;;;;;5.63;3.03;;;15.90;99.90;;;;;;4975219;28;20031;-73
2022/09/14 05:31:54;;;;;;;11.82;3.95;;;16.00;99.90;;;;;;4991728;28;20429;-71
2022/09/14 05:34:19;;;;;;;11.70;4.50;;;16.00;99.90;;;;;;4977605;28;20488;-71
2022/09/14 05:36:45;;;;;;;10.88;3.85;;;16.00;99.90;;;;;;4972724;28;20022;-72
2022/09/14 05:39:10;;;;;;;7.55;3.80;;;16.10;99.90;;;;;;4986057;28;20031;-72
2022/09/14 05:41:36;;;;;;;12.18;4.05;;;16.10;99.90;;;;;;4992092;28;20481;-71
2022/09/14 05:44:02;;;;;;;13.65;4.78;;;16.10;99.90;;;;;;4981137;28;20077;-71
2022/09/14 05:46:28;;;;;;;10.57;3.97;;;16.10;99.90;;;;;;4972531;28;20054;-71
2022/09/14 05:48:53;;;;;;;9.77;3.33;;;16.10;99.90;;;;;;4971406;28;20023;-71
2022/09/14 05:51:24;;;;;;;8.00;3.30;;;16.10;99.90;;;;;;4972492;28;20027;-72
2022/09/14 05:53:57;;;;;;;11.52;3.50;;;16.20;99.90;;;;;;4973428;28;20053;-71
2022/09/14 05:56:25;;;;;;;7.28;3.75;;;16.20;99.90;;;;;;4972911;28;20380;-72
2022/09/14 05:58:51;;;;;;;7.57;3.53;;;16.20;99.90;;;;;;4971646;28;20041;-72
2022/09/14 06:01:25;;;;;;;11.07;3.60;;;16.20;99.90;;;;;;4972881;28;20425;-73
2022/09/14 06:03:56;;;;;;;9.48;4.43;;;16.30;99.90;;;;;;4981615;28;20046;-71
2022/09/14 06:06:23;;;;;;;9.82;3.50;;;16.30;99.90;;;;;;4976182;28;20026;-72
2022/09/14 06:08:54;;;;;;;8.93;4.50;;;16.40;99.90;;;;;;4972846;28;20038;-73
2022/09/14 06:11:22;;;;;;;10.32;4.20;;;16.40;99.90;;;;;;4972718;28;20121;-70
2022/09/14 06:13:48;;;;;;;10.70;4.63;;;16.40;99.90;;;;;;4972121;28;20049;-71
2022/09/14 06:16:16;;;;;;;8.85;4.05;;;16.50;99.90;;;;;;4976141;28;20030;-72
2022/09/14 06:18:43;;;;;;;11.73;4.15;;;16.60;99.90;;;;;;4980289;28;20050;-72
2022/09/14 06:21:10;;;;;;;10.25;4.15;;;16.60;99.90;;;;;;4987054;28;20035;-71
2022/09/14 06:23:36;;;;;;;14.55;4.10;;;16.70;99.90;;;;;;4978368;28;20134;-72
2022/09/14 06:26:04;;;;;;;12.18;4.50;;;16.70;99.90;;;;;;4981252;28;20456;-71
2022/09/14 06:28:30;;;;;;;12.23;4.15;;;16.80;99.90;;;;;;4977938;28;20026;-72
2022/09/14 06:30:56;;;;;;;8.50;3.95;;;16.80;99.90;;;;;;4990716;28;20026;-71
2022/09/14 06:33:22;;;;;;;11.38;4.15;;;16.90;99.90;;;;;;4987412;28;20030;-70
2022/09/14 06:35:58;;;;;;;10.32;4.18;;;17.00;99.90;;;;;;4972639;28;20045;-71
2022/09/14 06:38:24;;;;;;;15.85;4.63;;;17.10;99.90;;;;;;4987508;28;20056;-71
2022/09/14 06:40:57;;;;;;;11.55;4.70;;;17.20;99.90;;;;;;4985586;28;20474;-72
2022/09/14 06:43:27;;;;;;;12.07;4.38;;;17.40;99.90;;;;;;4994869;28;20042;-71
2022/09/14 06:45:58;;;;;;;9.90;3.90;;;17.50;99.90;;;;;;5001796;28;20026;-72
2022/09/14 06:48:23;;;;;;;11.55;4.45;;;17.60;99.90;;;;;;5015417;28;20018;-71
2022/09/14 06:50:50;;;;;;;11.52;3.80;;;17.70;99.90;;;;;;4995006;28;20559;-71
2022/09/14 06:53:15;;;;;;;10.27;4.25;;;17.80;99.90;;;;;;4990589;28;20019;-71
2022/09/14 06:55:43;;;;;;;9.30;4.50;;;17.90;99.90;;;;;;4995530;28;20065;-71
2022/09/14 06:58:09;;;;;;;9.88;4.15;;;18.00;99.90;;;;;;4995709;28;20026;-70
2022/09/14 07:00:35;;;;;;;11.32;3.92;;;18.20;99.90;;;;;;4983207;28;20027;-74
2022/09/14 07:03:01;;;;;;;13.50;4.00;;;18.30;99.90;;;;;;4980918;28;20119;-72
2022/09/14 07:05:30;;;;;;;9.25;3.53;;;18.40;99.90;;;;;;4979779;28;20054;-72
2022/09/14 07:08:00;;;;;;;13.23;4.25;;;18.50;99.90;;;;;;4984489;28;20030;-71
2022/09/14 07:10:28;;;;;;;7.28;3.60;;;18.60;99.90;;;;;;4988182;28;20061;-74
2022/09/14 07:12:54;;;;;;;8.73;3.40;;;18.70;99.90;;;;;;4988226;28;20061;-74
2022/09/14 07:15:21;;;;;;;9.38;3.72;;;18.70;99.90;;;;;;4988308;28;20043;-72
2022/09/14 07:17:46;;;;;;;7.90;3.05;;;18.80;99.90;;;;;;4992234;28;20026;-70
2022/09/14 07:20:14;;;;;;;9.85;3.17;;;18.80;99.90;;;;;;4980119;28;20375;-70
2022/09/14 07:22:39;;;;;;;9.63;2.72;;;18.90;99.90;;;;;;4979659;28;20034;-71
2022/09/14 07:25:06;;;;;;;14.80;3.03;;;19.00;99.90;;;;;;4993412;28;20026;-70
2022/09/14 07:27:32;;;;;;;9.85;2.55;;;19.10;99.90;;;;;;4987369;28;20057;-71
2022/09/14 07:29:58;;;;;;;9.32;2.78;;;19.20;99.90;;;;;;4984052;28;20109;-71
2022/09/14 07:32:23;;;;;;;6.55;2.50;;;19.30;99.90;;;;;;4980781;28;20112;-71
2022/09/14 07:34:49;;;;;;;8.50;2.45;;;19.30;99.90;;;;;;4986161;28;20043;-72
2022/09/14 07:37:16;;;;;;;11.57;2.80;;;19.50;99.90;;;;;;4983478;28;20038;-73
2022/09/14 07:39:41;;;;;;;10.48;3.17;;;19.50;99.90;;;;;;4982956;28;20076;-71
2022/09/14 07:42:07;;;;;;;13.13;3.08;;;19.70;99.90;;;;;;4979593;28;20023;-71
2022/09/14 07:44:32;;;;;;;24.55;6.80;;;20.00;99.90;;;;;;4992829;28;20132;-72
2022/09/14 07:46:58;;;;;;;14.10;2.75;;;20.30;99.90;;;;;;4980383;28;20046;-72
2022/09/14 07:49:23;;;;;;;16.02;2.88;;;20.60;99.90;;;;;;4985374;28;20046;-71
2022/09/14 07:51:52;;;;;;;8.65;2.55;;;21.00;99.90;;;;;;4986300;28;20034;-73
2022/09/14 07:54:18;;;;;;;12.95;3.25;;;21.30;99.90;;;;;;4984146;28;20060;-72
2022/09/14 07:56:44;;;;;;;10.90;2.80;;;21.70;99.90;;;;;;4993416;28;20029;-75
2022/09/14 07:59:14;;;;;;;14.07;3.38;;;22.00;99.90;;;;;;4985714;28;20014;-73
2022/09/14 08:01:40;;;;;;;11.70;2.78;;;22.20;99.90;;;;;;4984780;28;20512;-71
2022/09/14 08:04:07;;;;;;;9.38;3.10;;;22.40;99.90;;;;;;4975794;28;20113;-71
2022/09/14 08:06:33;;;;;;;9.15;2.80;;;22.40;99.90;;;;;;4975443;28;20037;-73
2022/09/14 08:08:59;;;;;;;10.43;2.50;;;22.40;99.90;;;;;;4978347;28;20805;-72
2022/09/14 08:11:30;;;;;;;8.45;1.95;;;22.30;99.90;;;;;;4984182;28;20065;-72
2022/09/14 08:13:58;;;;;;;10.83;2.13;;;22.20;99.10;;;;;;4990803;28;20049;-73
2022/09/14 08:16:26;;;;;;;12.30;2.60;;;22.10;99.30;;;;;;4993298;28;20683;-71
2022/09/14 08:19:03;;;;;;;7.85;2.40;;;22.00;99.80;;;;;;4993379;28;20041;-71
2022/09/14 08:21:31;;;;;;;9.77;2.70;;;22.00;99.90;;;;;;4981731;28;20022;-72
2022/09/14 08:23:56;;;;;;;8.60;2.80;;;22.10;99.90;;;;;;4984035;28;20519;-72
2022/09/14 08:26:24;;;;;;;17.75;3.30;;;22.30;99.80;;;;;;4981008;28;20113;-73
2022/09/14 08:28:51;;;;;;;9.98;2.85;;;22.30;99.60;;;;;;4986035;28;20022;-71
2022/09/14 08:31:23;;;;;;;15.15;4.00;;;22.40;99.50;;;;;;4982678;28;20037;-71
2022/09/14 08:33:57;;;;;;;18.17;4.60;;;22.50;99.10;;;;;;4991060;28;20037;-72
2022/09/14 08:36:25;;;;;;;12.95;3.63;;;22.50;98.90;;;;;;4992061;28;20018;-71
2022/09/14 08:38:51;;;;;;;14.25;4.50;;;22.60;99.00;;;;;;4992729;28;20030;-71
2022/09/14 08:41:42;;;;;;;16.42;4.93;;;22.70;98.90;;;;;;4983587;28;20080;-72
2022/09/14 08:44:16;;;;;;;12.33;4.27;;;22.70;98.50;;;;;;4992461;28;20034;-72
2022/09/14 08:46:46;;;;;;;18.48;4.43;;;22.80;98.60;;;;;;4990650;28;20364;-73
2022/09/14 08:49:24;;;;;;;14.52;4.43;;;22.80;98.40;;;;;;4991266;28;20022;-71
2022/09/14 08:51:50;;;;;;;16.15;4.07;;;22.80;98.50;;;;;;4990279;28;20018;-73
2022/09/14 08:54:16;;;;;;;14.35;4.30;;;23.00;98.60;;;;;;4982396;28;20041;-72
2022/09/14 08:56:47;;;;;;;12.98;4.85;;;23.00;98.50;;;;;;4992475;28;20101;-73
2022/09/14 08:59:28;;;;;;;14.25;3.95;;;23.00;98.40;;;;;;4987000;28;20030;-71
2022/09/14 09:02:08;;;;;;;15.05;4.13;;;23.10;98.30;;;;;;4984719;28;20357;-73
2022/09/14 09:05:00;;;;;;;12.73;4.05;;;23.20;97.80;;;;;;4992373;28;20027;-71
2022/09/14 09:07:51;;;;;;;8.80;3.15;;;23.20;97.90;;;;;;4973520;28;20023;-73
2022/09/14 09:10:18;;;;;;;14.88;3.45;;;23.20;97.70;;;;;;4973274;28;20019;-72
2022/09/14 09:12:52;;;;;;;9.73;3.10;;;23.30;97.80;;;;;;4974957;28;20129;-71
2022/09/14 09:15:35;;;;;;;12.63;3.10;;;23.30;97.90;;;;;;4973576;28;20034;-71
2022/09/14 09:18:15;;;;;;;12.07;3.28;;;23.50;97.90;;;;;;4979159;28;20030;-71
2022/09/14 09:20:51;;;;;;;12.40;2.92;;;23.70;97.30;;;;;;4992545;28;20110;-73
2022/09/14 09:23:19;;;;;;;11.95;5.30;;;23.70;96.70;;;;;;4973754;28;20039;-72
2022/09/14 09:25:45;;;;;;;9.85;2.90;;;23.80;96.70;;;;;;4973794;28;20035;-73
2022/09/14 09:28:12;;;;;;;11.95;2.88;;;23.90;96.60;;;;;;4973460;28;20138;-71
2022/09/14 09:30:40;;;;;;;11.57;3.20;;;24.00;96.50;;;;;;4973759;28;20027;-71
2022/09/14 09:33:08;;;;;;;8.15;2.40;;;24.00;96.00;;;;;;4990830;28;20034;-73
2022/09/14 09:35:33;;;;;;;13.93;3.45;;;24.00;96.30;;;;;;4984087;28;20096;-72
2022/09/14 09:37:59;;;;;;;9.88;2.17;;;24.10;96.20;;;;;;4982803;28;20392;-73
2022/09/14 09:40:35;;;;;;;6.20;2.00;;;24.10;96.00;;;;;;4991881;28;20031;-71
2022/09/14 09:43:03;;;;;;;4.65;1.60;;;24.10;95.90;;;;;;4976333;28;20097;-72
2022/09/14 09:45:54;;;;;;;6.97;1.83;;;24.00;96.10;;;;;;4985344;28;20042;-71
2022/09/14 09:48:27;;;;;;;10.43;3.35;;;24.00;96.20;;;;;;4976870;28;20034;-73
2022/09/14 09:50:55;;;;;;;8.43;2.08;;;24.00;95.90;;;;;;4993297;28;20085;-72
2022/09/14 09:53:22;;;;;;;6.13;1.98;;;24.10;96.00;;;;;;4990334;28;20038;-72
2022/09/14 09:55:48;;;;;;;11.25;2.03;;;24.20;95.60;;;;;;4990159;28;20022;-72
2022/09/14 09:58:28;;;;;;;6.70;2.05;;;24.50;95.40;;;;;;4986555;28;20026;-72
2022/09/14 10:01:00;;;;;;;10.30;2.25;;;24.70;94.90;;;;;;4991303;28;20477;-71
2022/09/14 10:03:28;;;;;;;;;;;24.80;94.70;;;;;;4990401;28;20547;-73
2022/09/14 10:06:22;;;;;;;10.18;2.08;;;24.80;94.50;;;;;;4985374;28;19902;-73
2022/09/14 10:08:48;;;;;;;9.43;2.47;;;25.00;94.50;;;;;;4981978;28;20093;-71
2022/09/14 10:11:36;;;;;;;11.80;2.85;;;25.40;94.20;;;;;;4991525;28;20468;-73
2022/09/14 10:14:04;;;;;;;8.13;1.85;;;26.30;93.00;;;;;;4992756;28;20036;-71
2022/09/14 10:16:37;;;;;;;6.65;1.85;;;27.20;91.70;;;;;;4993798;28;20053;-73
2022/09/14 10:19:17;;;;;;;9.25;1.73;;;27.60;91.00;;;;;;4992294;28;20660;-72
2022/09/14 10:22:17;;;;;;;4.95;1.65;;;27.80;90.90;;;;;;4994943;28;20038;-71
2022/09/14 10:24:53;;;;;;;7.43;2.60;;;28.10;90.00;;;;;;4987120;28;20030;-72
2022/09/14 10:27:40;;;;;;;9.30;2.22;;;28.50;88.90;;;;;;4987333;28;20034;-72
2022/09/14 10:30:16;;;;;;;7.13;1.67;;;29.40;87.10;;;;;;4982968;28;20026;-72
2022/09/14 10:32:48;;;;;;;2.85;1.23;;;30.40;83.40;;;;;;4981823;28;20085;-72
2022/09/14 10:35:14;;;;;;;4.82;1.48;;;31.50;81.20;;;;;;4990044;28;20022;-72
2022/09/14 10:38:00;;;;;;;6.95;1.70;;;32.50;77.60;;;;;;4989780;28;20030;-72
2022/09/14 10:40:35;;;;;;;6.82;1.52;;;33.10;76.40;;;;;;4982654;28;20054;-72
2022/09/14 10:43:21;;;;;;;7.03;1.70;;;33.40;74.80;;;;;;4987569;28;20034;-72
2022/09/14 10:45:55;;;;;;;3.70;1.40;;;33.40;73.80;;;;;;4982103;28;20018;-70
2022/09/14 10:48:39;;;;;;;6.70;1.48;;;33.40;74.00;;;;;;4994219;28;20030;-71
2022/09/14 10:51:23;;;;;;;3.75;1.45;;;33.70;72.50;;;;;;4991641;28;20036;-71
2022/09/14 10:54:17;;;;;;;5.00;1.95;;;34.40;70.40;;;;;;4986895;28;20347;-71
2022/09/14 10:57:04;;;;;;;7.43;2.00;;;35.30;68.80;;;;;;4979105;28;20023;-71
2022/09/14 10:59:43;;;;;;;5.95;1.80;;;36.00;66.80;;;;;;4982714;28;20027;-70
2022/09/14 11:02:17;;;;;;;4.22;1.40;;;36.00;67.00;;;;;;4990559;28;20052;-70
2022/09/14 11:04:58;;;;;;;6.90;1.98;;;35.80;66.40;;;;;;4979170;28;20054;-71
2022/09/14 11:07:34;;;;;;;5.75;1.52;;;35.90;66.10;;;;;;4981728;28;20041;-72
2022/09/14 11:10:37;;;;;;;5.25;1.77;;;36.10;65.90;;;;;;4977447;28;20031;-74
2022/09/14 11:13:40;;;;;;;5.18;1.80;;;36.20;64.70;;;;;;4980124;28;20198;-70
2022/09/14 11:16:46;;;;;;;5.10;1.83;;;35.70;64.80;;;;;;4984012;28;20019;-70
2022/09/14 11:19:32;;;;;;;7.47;1.70;;;35.30;65.90;;;;;;4984941;28;20109;-72
2022/09/14 11:22:03;;;;;;;7.50;1.90;;;35.90;64.80;;;;;;4977247;28;20531;-70
2022/09/14 11:25:07;;;;;;;9.35;1.90;;;36.40;64.20;;;;;;4980066;28;20035;-71
2022/09/14 11:28:05;;;;;;;5.82;1.80;;;36.80;62.90;;;;;;4987237;28;20026;-71
2022/09/14 11:30:43;;;;;;;7.50;1.80;;;37.10;62.10;;;;;;4980538;28;20540;-72
2022/09/14 11:33:26;;;;;;;6.32;1.50;;;37.30;62.20;;;;;;4990746;28;20093;-72
2022/09/14 11:36:03;;;;;;;4.68;1.30;;;37.70;61.10;;;;;;4983702;28;20054;-70
2022/09/14 11:39:03;;;;;;;7.95;1.63;;;37.70;60.80;;;;;;4980557;28;20035;-72
2022/09/14 11:41:51;;;;;;;6.03;1.63;;;37.70;60.50;;;;;;4975215;28;20060;-70
2022/09/14 11:44:29;;;;;;;6.18;1.58;;;37.30;60.30;;;;;;4979265;28;20045;-71
2022/09/14 11:47:06;;;;;;;4.85;1.50;;;36.60;61.20;;;;;;4989722;28;20034;-72
2022/09/14 11:49:38;;;;;;;7.10;1.85;;;35.90;62.00;;;;;;4983099;28;20027;-71
2022/09/14 11:52:12;;;;;;;7.43;1.95;;;35.10;62.30;;;;;;4990261;28;20030;-71
2022/09/14 11:54:41;;;;;;;7.93;1.75;;;34.40;63.40;;;;;;4991110;28;20045;-71
2022/09/14 11:57:13;;;;;;;7.93;1.95;;;33.60;64.80;;;;;;4993615;28;20077;-72
2022/09/14 11:59:38;;;;;;;6.35;2.08;;;32.70;65.50;;;;;;4993776;28;20457;-70
2022/09/14 12:02:22;;;;;;;12.25;2.28;;;31.90;66.70;;;;;;4994700;28;20034;-72
2022/09/14 12:05:03;;;;;;;7.47;2.20;;;31.10;67.40;;;;;;4977687;28;20015;-71
2022/09/14 12:07:41;;;;;;;8.18;2.53;;;30.30;68.90;;;;;;4985841;28;20042;-72
2022/09/14 12:10:13;;;;;;;9.07;2.22;;;29.70;70.00;;;;;;4993485;28;20080;-71
2022/09/14 12:12:41;;;;;;;3.65;1.65;;;29.20;70.90;;;;;;4992940;28;20112;-71
2022/09/14 12:15:13;;;;;;;6.03;1.85;;;28.80;71.80;;;;;;4993834;28;20031;-71
2022/09/14 12:17:40;;;;;;;;;;;28.50;72.20;;;;;;4994073;28;20345;-71
2022/09/14 12:20:37;;;;;;;8.10;1.70;;;28.30;72.80;;;;;;4993354;28;19993;-71
2022/09/14 12:23:40;;;;;;;7.57;2.00;;;28.10;73.30;;;;;;4987088;28;20045;-71
2022/09/14 12:26:09;;;;;;;5.07;1.60;;;27.90;73.70;;;;;;4981963;28;20121;-70
2022/09/14 12:28:34;;;;;;;6.28;1.63;;;27.70;73.80;;;;;;4993835;28;20025;-71
2022/09/14 12:31:03;;;;;;;11.25;2.28;;;27.60;73.60;;;;;;4993067;28;20368;-71
2022/09/14 12:33:32;;;;;;;8.93;1.55;;;27.50;73.60;;;;;;4992694;28;20044;-71
2022/09/14 12:36:25;;;;;;;8.38;2.10;;;27.40;74.30;;;;;;4993686;28;20029;-71
2022/09/14 12:38:52;;;;;;;7.68;1.50;;;27.40;74.80;;;;;;4984862;28;20030;-71
2022/09/14 12:41:17;;;;;;;9.68;2.38;;;27.50;75.00;;;;;;4985632;28;20022;-71
2022/09/14 12:43:55;;;;;;;10.63;1.92;;;27.60;74.70;;;;;;4990662;28;20035;-71
2022/09/14 12:46:20;;;;;;;9.48;1.70;;;27.70;75.30;;;;;;4982679;28;20033;-71
2022/09/14 12:48:51;;;;;;;8.68;1.80;;;27.70;75.30;;;;;;4990748;28;20014;-71
2022/09/14 12:51:23;;;;;;;;;;;27.70;76.00;;;;;;4990864;28;20029;-71
2022/09/14 12:53:57;;;;;;;6.33;2.00;;;27.60;76.90;;;;;;4985831;28;20336;-71
2022/09/14 12:56:40;;;;;;;7.60;1.50;;;27.60;77.60;;;;;;4981472;28;20354;-70
2022/09/14 12:59:28;;;;;;;9.73;1.60;;;27.50;77.30;;;;;;4980022;28;20447;-70
2022/09/14 13:02:25;;;;;;;5.93;1.10;;;27.30;77.30;;;;;;4978912;28;20380;-71
2022/09/14 13:04:56;;;;;;;5.85;1.00;;;27.20;78.00;;;;;;4973813;28;20034;-70
2022/09/14 13:07:30;;;;;;;7.77;1.80;;;27.20;77.80;;;;;;4972650;28;20350;-71
2022/09/14 13:09:57;;;;;;;4.57;1.27;;;27.20;78.20;;;;;;4973449;28;20444;-71
2022/09/14 13:12:50;;;;;;;4.75;1.50;;;27.20;78.20;;;;;;4992105;28;20084;-71